Sao Gabriel, Brazil
Current Conditions -  °F | °C
As of 10:00 AM on Thursday 18 Dec 2014 (Local Time) from SBPL Reporting Station
Broken Clouds Broken Clouds  
Wind Chill: 86°   Ceiling: 7000
Heat Index: 90°   Visibility: 6mi
Dew Point: 70°   Wind: 6mph
Humidity: 58%   Direction: 50°NE
Pressure: 29.97"   Gusts: NA
Location:  11.23°S, 41.91°W
Report Text: SBPL 181300Z 05005KT 9999 SCT020 BKN070 30/21 Q1015
Loading
Personal Weather Stations






























Interactive Weather Map New forecast layout! Learn more

10-Day Weather Forecast

Advertisements
Track Severe Weather on mobile